createdAt,value
2022-09-27T00:01:37.605Z,10.95
2022-09-27T00:04:53.886Z,10.53
2022-09-27T00:08:10.573Z,10.50
2022-09-27T00:11:33.179Z,10.43
2022-09-27T00:14:49.697Z,10.55
2022-09-27T00:18:05.998Z,11.05
2022-09-27T00:21:23.212Z,11.15
2022-09-27T00:24:39.499Z,10.55
2022-09-27T00:27:55.722Z,9.98
2022-09-27T00:31:14.902Z,11.48
2022-09-27T00:37:46.927Z,12.63
2022-09-27T00:41:03.170Z,11.38
2022-09-27T00:45:13.650Z,11.35
2022-09-27T00:48:34.870Z,11.38
2022-09-27T00:51:54.648Z,12.15
2022-09-27T00:55:18.074Z,12.65
2022-09-27T00:59:08.022Z,13.80
2022-09-27T01:02:25.644Z,13.28
2022-09-27T01:05:44.128Z,13.65
2022-09-27T01:09:00.387Z,13.35
2022-09-27T01:12:22.694Z,13.38
2022-09-27T01:15:45.915Z,13.15
2022-09-27T01:19:13.348Z,13.15
2022-09-27T01:22:33.613Z,12.05
2022-09-27T01:32:27.974Z,10.53
2022-09-27T01:35:53.843Z,11.65
2022-09-27T01:39:28.923Z,12.48
2022-09-27T01:43:10.266Z,10.95
2022-09-27T01:46:32.353Z,12.30
2022-09-27T01:50:11.440Z,12.88
2022-09-27T01:53:34.037Z,13.88
2022-09-27T01:56:56.697Z,13.05
2022-09-27T02:00:19.802Z,14.18
2022-09-27T02:03:39.736Z,13.20
2022-09-27T02:11:32.794Z,12.08
2022-09-27T02:15:10.565Z,12.48
2022-09-27T02:18:31.896Z,12.78
2022-09-27T02:21:54.306Z,11.73
2022-09-27T02:25:20.261Z,12.58
2022-09-27T02:28:41.094Z,12.40
2022-09-27T02:32:00.825Z,11.83
2022-09-27T02:35:23.468Z,12.53
2022-09-27T02:38:40.298Z,13.08
2022-09-27T02:41:59.153Z,12.90
2022-09-27T02:45:19.984Z,13.13
2022-09-27T02:48:42.649Z,13.38
2022-09-27T02:52:05.006Z,11.95
2022-09-27T02:55:27.911Z,12.75
2022-09-27T03:02:13.158Z,12.93
2022-09-27T03:05:32.431Z,11.93
2022-09-27T03:08:49.659Z,11.95
2022-09-27T03:12:06.381Z,12.00
2022-09-27T03:15:23.565Z,11.03
2022-09-27T03:18:49.270Z,11.78
2022-09-27T03:22:24.382Z,11.35
2022-09-27T03:25:40.902Z,11.68
2022-09-27T03:28:57.399Z,11.80
2022-09-27T03:32:14.085Z,10.50
2022-09-27T03:35:35.267Z,10.75
2022-09-27T03:38:51.706Z,10.80
2022-09-27T03:42:08.892Z,11.28
2022-09-27T03:45:26.189Z,10.05
2022-09-27T03:48:43.446Z,10.50
2022-09-27T03:51:59.866Z,9.33
2022-09-27T03:55:18.237Z,12.05
2022-09-27T04:01:49.971Z,10.03
2022-09-27T04:05:07.950Z,9.43
2022-09-27T04:08:24.513Z,9.65
2022-09-27T04:18:12.890Z,10.70
2022-09-27T04:21:31.493Z,10.37
2022-09-27T04:24:47.853Z,10.73
2022-09-27T04:28:07.051Z,10.93
2022-09-27T04:31:23.388Z,10.48
2022-09-27T04:34:55.607Z,10.48
2022-09-27T04:38:13.040Z,10.05
2022-09-27T04:41:30.805Z,10.58
2022-09-27T04:44:48.607Z,11.35
2022-09-27T04:48:05.008Z,10.45
2022-09-27T04:51:23.900Z,11.00
2022-09-27T04:54:41.135Z,10.33
2022-09-27T04:58:00.030Z,11.05
2022-09-27T05:01:17.145Z,11.13
2022-09-27T05:04:45.300Z,11.03
2022-09-27T05:08:01.831Z,11.63
2022-09-27T05:11:21.519Z,12.38
2022-09-27T05:14:55.813Z,11.83
2022-09-27T05:18:28.720Z,11.40
2022-09-27T05:22:02.911Z,13.20
2022-09-27T05:25:20.317Z,12.23
2022-09-27T05:28:36.776Z,12.40
2022-09-27T05:31:53.237Z,11.68
2022-09-27T05:35:10.004Z,13.33
2022-09-27T05:38:26.345Z,12.50
2022-09-27T05:41:44.495Z,13.05
2022-09-27T05:45:00.966Z,11.90
2022-09-27T05:48:18.510Z,11.40
2022-09-27T05:51:51.896Z,10.53
2022-09-27T05:55:08.139Z,10.60
2022-09-27T05:58:25.969Z,10.35
2022-09-27T06:01:46.567Z,11.58
2022-09-27T06:05:20.535Z,13.28
2022-09-27T06:08:51.406Z,12.75
2022-09-27T06:12:10.455Z,11.08
2022-09-27T06:15:26.860Z,10.73
2022-09-27T06:18:43.851Z,10.38
2022-09-27T06:22:01.669Z,11.67
2022-09-27T06:25:21.775Z,12.10
2022-09-27T06:28:43.546Z,11.83
2022-09-27T06:32:05.185Z,12.20
2022-09-27T06:35:40.184Z,11.95
2022-09-27T06:38:58.383Z,11.65
2022-09-27T06:42:25.353Z,11.85
2022-09-27T06:45:44.656Z,12.00
2022-09-27T06:49:09.009Z,12.13
2022-09-27T06:52:25.363Z,11.98
2022-09-27T06:55:42.098Z,11.80
2022-09-27T06:59:12.325Z,12.63
2022-09-27T07:02:30.648Z,14.05
2022-09-27T07:06:13.718Z,14.50
2022-09-27T07:09:32.155Z,23.83
2022-09-27T07:12:49.869Z,28.70
2022-09-27T07:16:07.121Z,32.65
2022-09-27T07:19:23.525Z,24.55
2022-09-27T07:22:47.371Z,28.53
2022-09-27T07:26:05.059Z,29.20
2022-09-27T07:32:37.780Z,30.95
2022-09-27T07:35:55.565Z,24.93
2022-09-27T07:39:13.012Z,22.65
2022-09-27T07:42:29.502Z,27.00
2022-09-27T07:45:49.377Z,54.35
2022-09-27T07:49:13.819Z,23.70
2022-09-27T07:52:46.176Z,24.28
2022-09-27T07:56:04.645Z,24.38
2022-09-27T07:59:22.170Z,26.08
2022-09-27T08:02:38.658Z,24.65
2022-09-27T08:05:57.145Z,24.43
2022-09-27T08:09:17.079Z,23.40
2022-09-27T08:12:33.976Z,20.68
2022-09-27T08:15:52.079Z,18.68
2022-09-27T08:19:09.274Z,15.83
2022-09-27T08:22:49.669Z,14.88
2022-09-27T08:26:14.025Z,14.30
2022-09-27T08:33:03.382Z,17.83
2022-09-27T08:36:22.296Z,19.23
2022-09-27T08:39:38.763Z,14.83
2022-09-27T08:43:01.359Z,13.10
2022-09-27T08:46:37.463Z,13.75
2022-09-27T08:49:58.840Z,12.78
2022-09-27T08:53:23.769Z,13.03
2022-09-27T08:56:42.086Z,13.18
2022-09-27T09:00:07.768Z,14.78
2022-09-27T09:03:28.364Z,13.73
2022-09-27T09:06:51.815Z,13.08
2022-09-27T09:10:14.754Z,11.68
2022-09-27T09:13:45.486Z,20.30
2022-09-27T09:20:40.719Z,11.70
2022-09-27T09:24:23.302Z,11.93
2022-09-27T09:27:45.810Z,11.33
2022-09-27T09:31:09.100Z,12.03
2022-09-27T09:34:29.660Z,10.45
2022-09-27T09:37:51.015Z,11.05
2022-09-27T09:41:13.900Z,10.73
2022-09-27T09:44:34.987Z,10.88
2022-09-27T09:47:57.599Z,21.65
2022-09-27T09:51:20.257Z,26.20
2022-09-27T09:54:41.191Z,11.75
2022-09-27T09:58:10.854Z,9.55
2022-09-27T10:01:33.580Z,10.68
2022-09-27T10:04:49.839Z,10.23
2022-09-27T10:08:10.076Z,10.20
2022-09-27T10:11:32.974Z,10.23
2022-09-27T10:15:13.508Z,9.33
2022-09-27T10:18:30.459Z,9.03
2022-09-27T10:21:51.026Z,9.03
2022-09-27T10:25:10.252Z,8.58
2022-09-27T10:28:48.303Z,9.83
2022-09-27T10:32:08.012Z,7.68
2022-09-27T10:35:45.843Z,7.98
2022-09-27T10:39:06.031Z,10.50
2022-09-27T10:42:44.287Z,8.00
2022-09-27T10:46:14.560Z,7.95
2022-09-27T10:49:34.627Z,8.65
2022-09-27T10:52:51.931Z,7.45
2022-09-27T10:56:12.457Z,7.93
2022-09-27T10:59:31.389Z,7.00
2022-09-27T11:02:47.891Z,6.60
2022-09-27T11:06:06.092Z,6.63
2022-09-27T11:09:30.998Z,6.03
2022-09-27T11:12:47.727Z,6.15
2022-09-27T11:16:17.865Z,6.43
2022-09-27T11:19:59.928Z,6.53
2022-09-27T11:23:48.576Z,5.58
2022-09-27T11:27:16.141Z,6.25
2022-09-27T11:30:36.934Z,5.95
2022-09-27T11:34:33.262Z,6.53
2022-09-27T11:37:55.860Z,5.20
2022-09-27T11:41:32.553Z,4.75
2022-09-27T11:48:12.487Z,4.53
2022-09-27T11:51:55.528Z,4.03
2022-09-27T11:55:33.110Z,4.58
2022-09-27T11:58:56.077Z,3.63
2022-09-27T12:02:21.552Z,3.53
2022-09-27T12:05:45.004Z,3.85
2022-09-27T12:09:12.623Z,3.60
2022-09-27T12:12:33.529Z,3.30
2022-09-27T12:19:39.367Z,3.05
2022-09-27T12:23:03.236Z,3.78
2022-09-27T12:26:35.252Z,3.15
2022-09-27T12:30:07.384Z,2.88
2022-09-27T12:33:44.941Z,2.85
2022-09-27T12:37:08.772Z,7.80
2022-09-27T12:40:57.694Z,3.53
2022-09-27T12:44:20.009Z,3.08
2022-09-27T12:48:01.909Z,3.10
2022-09-27T12:51:25.928Z,2.88
2022-09-27T12:55:26.686Z,2.80
2022-09-27T12:59:13.672Z,6.35
2022-09-27T13:03:28.740Z,2.60
2022-09-27T13:07:04.530Z,2.45
2022-09-27T13:10:50.015Z,2.70
2022-09-27T13:18:02.830Z,3.03
2022-09-27T13:21:55.243Z,2.80
2022-09-27T13:26:00.421Z,2.20
2022-09-27T13:29:38.583Z,2.35
2022-09-27T13:33:44.065Z,2.10
2022-09-27T13:37:02.066Z,2.18
2022-09-27T13:40:43.744Z,2.13
2022-09-27T13:47:35.641Z,2.45
2022-09-27T13:51:01.885Z,2.55
2022-09-27T13:54:44.200Z,1.90
2022-09-27T14:03:11.752Z,2.10
2022-09-27T14:06:38.332Z,2.80
2022-09-27T14:10:06.316Z,2.40
2022-09-27T14:18:11.802Z,2.95
2022-09-27T14:21:44.200Z,2.98
2022-09-27T14:25:28.820Z,3.20
2022-09-27T14:28:55.011Z,2.90
2022-09-27T14:32:21.159Z,3.05
2022-09-27T14:35:54.879Z,3.00
2022-09-27T14:39:19.262Z,3.65
2022-09-27T14:42:38.188Z,3.58
2022-09-27T14:45:58.371Z,41.18
2022-09-27T14:49:31.063Z,8.95
2022-09-27T14:52:50.765Z,3.30
2022-09-27T14:56:11.617Z,3.10
2022-09-27T14:59:33.041Z,3.10
2022-09-27T15:02:51.593Z,3.00
2022-09-27T15:06:11.710Z,2.80
2022-09-27T15:09:32.983Z,2.83
2022-09-27T15:16:01.964Z,3.05
2022-09-27T15:19:27.759Z,2.85
2022-09-27T15:22:50.686Z,2.70
2022-09-27T15:26:16.783Z,2.98
2022-09-27T15:29:35.095Z,3.10
2022-09-27T15:32:58.409Z,3.53
2022-09-27T15:36:18.968Z,3.43
2022-09-27T15:39:41.249Z,2.88
2022-09-27T15:43:07.336Z,2.55
2022-09-27T15:46:47.483Z,1.88
2022-09-27T15:50:03.774Z,1.63
2022-09-27T15:53:22.637Z,1.70
2022-09-27T15:56:41.035Z,1.50
2022-09-27T15:59:57.149Z,1.58
2022-09-27T16:03:14.865Z,5.10
2022-09-27T16:06:34.425Z,3.08
2022-09-27T16:09:52.661Z,1.98
2022-09-27T16:16:29.613Z,2.23
2022-09-27T16:19:45.986Z,2.53
2022-09-27T16:23:03.380Z,3.15
2022-09-27T16:26:20.307Z,2.93
2022-09-27T16:32:57.115Z,2.93
2022-09-27T16:36:17.812Z,3.58
2022-09-27T16:39:34.065Z,3.83
2022-09-27T16:42:50.384Z,14.90
2022-09-27T16:46:16.413Z,4.55
2022-09-27T16:49:50.111Z,3.73
2022-09-27T16:53:07.054Z,3.63
2022-09-27T16:56:27.624Z,3.68
2022-09-27T16:59:45.844Z,4.08
2022-09-27T17:03:02.335Z,4.28
2022-09-27T17:06:19.390Z,4.25
2022-09-27T17:09:36.517Z,3.90
2022-09-27T17:12:52.876Z,4.20
2022-09-27T17:19:25.442Z,4.60
2022-09-27T17:22:42.493Z,4.00
2022-09-27T17:25:59.180Z,4.18
2022-09-27T17:29:16.775Z,3.90
2022-09-27T17:32:33.422Z,4.05
2022-09-27T17:35:50.033Z,4.00
2022-09-27T17:39:07.878Z,4.60
2022-09-27T17:42:26.087Z,4.10
2022-09-27T17:45:44.031Z,3.73
2022-09-27T17:49:14.733Z,4.23
2022-09-27T17:52:32.009Z,4.30
2022-09-27T17:55:48.514Z,4.35
2022-09-27T17:59:06.646Z,4.35
2022-09-27T18:02:23.226Z,4.28
2022-09-27T18:05:40.178Z,4.25
2022-09-27T18:08:56.694Z,4.48
2022-09-27T18:12:14.860Z,4.80
2022-09-27T18:15:31.813Z,4.90
2022-09-27T18:18:50.480Z,55.95
2022-09-27T18:22:08.152Z,10.30
2022-09-27T18:25:26.187Z,6.50
2022-09-27T18:28:43.047Z,5.60
2022-09-27T18:35:16.838Z,5.78
2022-09-27T18:38:33.458Z,6.10
2022-09-27T18:41:50.719Z,6.28
2022-09-27T18:48:23.097Z,6.23
2022-09-27T18:51:41.815Z,6.38
2022-09-27T18:55:00.373Z,5.88
2022-09-27T18:58:17.640Z,6.63
2022-09-27T19:01:36.603Z,7.13
2022-09-27T19:04:53.150Z,7.05
2022-09-27T19:08:09.840Z,6.70
2022-09-27T19:11:27.238Z,6.85
2022-09-27T19:18:02.254Z,7.10
2022-09-27T19:21:23.635Z,7.13
2022-09-27T19:24:40.323Z,6.83
2022-09-27T19:27:59.184Z,7.43
2022-09-27T19:34:30.684Z,7.13
2022-09-27T19:37:47.347Z,7.35
2022-09-27T19:41:04.968Z,7.25
2022-09-27T19:44:21.509Z,7.53
2022-09-27T19:47:45.639Z,7.60
2022-09-27T19:51:09.205Z,8.43
2022-09-27T19:54:25.719Z,7.93
2022-09-27T19:57:42.497Z,8.70
2022-09-27T20:04:16.402Z,8.50
2022-09-27T20:07:34.426Z,8.70
2022-09-27T20:10:52.628Z,8.93
2022-09-27T20:14:08.951Z,8.80
2022-09-27T20:17:25.175Z,9.50
2022-09-27T20:20:41.583Z,9.70
2022-09-27T20:24:02.733Z,9.63
2022-09-27T20:27:19.173Z,8.80
2022-09-27T20:30:35.983Z,9.48
2022-09-27T20:33:53.063Z,7.68
2022-09-27T20:37:09.457Z,8.75
2022-09-27T20:40:26.414Z,8.40
2022-09-27T20:43:43.001Z,7.78
2022-09-27T20:47:11.539Z,7.60
2022-09-27T20:50:28.129Z,8.07
2022-09-27T20:53:47.714Z,8.28
2022-09-27T20:57:03.954Z,7.05
2022-09-27T21:03:35.746Z,6.43
2022-09-27T21:06:53.398Z,7.33
2022-09-27T21:10:10.050Z,7.10
2022-09-27T21:13:29.641Z,6.75
2022-09-27T21:16:45.907Z,6.30
2022-09-27T21:20:02.262Z,6.48
2022-09-27T21:23:18.415Z,7.08
2022-09-27T21:26:37.320Z,6.33
2022-09-27T21:29:53.720Z,6.08
2022-09-27T21:33:10.079Z,6.25
2022-09-27T21:36:30.706Z,6.48
2022-09-27T21:39:47.269Z,6.03
2022-09-27T21:43:03.404Z,6.40
2022-09-27T21:46:24.019Z,6.93
2022-09-27T21:49:40.310Z,7.30
2022-09-27T21:52:58.232Z,7.58
2022-09-27T21:56:16.612Z,7.03
2022-09-27T21:59:32.868Z,7.35
2022-09-27T22:02:49.102Z,7.58
2022-09-27T22:06:06.403Z,7.35
2022-09-27T22:09:25.496Z,7.30
2022-09-27T22:12:43.785Z,7.00
2022-09-27T22:16:00.390Z,7.45
2022-09-27T22:19:19.738Z,7.00
2022-09-27T22:22:36.228Z,7.25
2022-09-27T22:25:52.419Z,7.30
2022-09-27T22:29:11.941Z,6.90
2022-09-27T22:32:28.033Z,7.40
2022-09-27T22:35:44.862Z,7.28
2022-09-27T22:39:02.056Z,7.18
2022-09-27T22:42:19.412Z,7.53
2022-09-27T22:45:35.557Z,7.58
2022-09-27T22:48:52.054Z,7.70
2022-09-27T22:52:08.519Z,6.40
2022-09-27T22:55:24.946Z,6.73
2022-09-27T22:58:43.100Z,5.55
2022-09-27T23:05:16.514Z,5.65
2022-09-27T23:08:32.610Z,6.33
2022-09-27T23:11:48.822Z,5.98
2022-09-27T23:15:05.138Z,6.78
2022-09-27T23:18:21.215Z,5.68
2022-09-27T23:21:38.771Z,5.63
2022-09-27T23:24:54.793Z,5.33
2022-09-27T23:28:11.115Z,5.10
2022-09-27T23:31:30.094Z,5.00
2022-09-27T23:34:47.169Z,4.83
2022-09-27T23:38:03.662Z,4.85
2022-09-27T23:41:20.888Z,5.35
2022-09-27T23:44:37.473Z,4.90
2022-09-27T23:47:54.819Z,5.18
2022-09-27T23:51:12.210Z,4.83
2022-09-27T23:54:28.420Z,5.20
2022-09-27T23:57:44.407Z,5.23
